Time,TemperatureF,DewpointF,PressureIn,WindDirection,WindDirectionDegrees,WindSpeedMPH,WindSpeedGustMPH,Humidity,HourlyPrecipIn,Conditions,Clouds,dailyrainin,SoftwareType,DateUTC
2013-08-12 00:00:00,73.0,73.0,-100.00,SSE,158,5.0,-999.0,100,0.00,,,0.00,,2013-08-12 04:00:00,
2013-08-12 00:02:00,73.0,73.0,-100.00,SSE,158,5.0,-999.0,100,0.00,,,0.00,,2013-08-12 04:02:00,
2013-08-12 00:12:00,73.0,73.0,-100.00,SSE,158,5.0,-999.0,100,0.00,,,0.00,,2013-08-12 04:12:00,
2013-08-12 00:52:00,73.0,73.0,-100.00,SSE,152,4.0,-999.0,100,0.00,,,0.00,,2013-08-12 04:52:00,
2013-08-12 01:02:00,73.0,73.0,-100.00,SSE,152,4.0,-999.0,100,0.00,,,0.00,,2013-08-12 05:02:00,
2013-08-12 01:11:00,73.0,73.0,-100.00,SSE,152,4.0,-999.0,100,0.00,,,0.00,,2013-08-12 05:11:00,
2013-08-12 01:52:00,73.0,73.0,-100.00,SSE,161,3.0,-999.0,100,0.00,,,0.00,,2013-08-12 05:52:00,
2013-08-12 02:02:00,73.0,73.0,-100.00,SSE,161,3.0,-999.0,100,0.00,,,0.00,,2013-08-12 06:02:00,
2013-08-12 02:11:00,73.0,73.0,-100.00,SSE,161,3.0,-999.0,100,0.00,,,0.00,,2013-08-12 06:11:00,
2013-08-12 02:52:00,73.0,73.0,-100.00,South,174,4.0,-999.0,100,0.00,,,0.00,,2013-08-12 06:52:00,
2013-08-12 03:01:00,73.0,73.0,-100.00,South,174,4.0,-999.0,100,0.00,,,0.00,,2013-08-12 07:01:00,
2013-08-12 03:12:00,73.0,73.0,-100.00,South,174,4.0,-999.0,100,0.00,,,0.00,,2013-08-12 07:12:00,
2013-08-12 03:53:00,73.0,73.0,-100.00,SE,124,3.0,-999.0,100,0.00,,,0.00,,2013-08-12 07:53:00,
2013-08-12 04:02:00,73.0,73.0,-100.00,SE,124,3.0,-999.0,100,0.00,,,0.00,,2013-08-12 08:02:00,
2013-08-12 04:12:00,73.0,73.0,-100.00,SE,124,3.0,-999.0,100,0.00,,,0.00,,2013-08-12 08:12:00,
2013-08-12 04:53:00,73.0,73.0,-100.00,SE,126,3.0,-999.0,100,0.00,,,0.00,,2013-08-12 08:53:00,
2013-08-12 05:02:00,73.0,73.0,-100.00,SE,126,3.0,-999.0,100,0.00,,,0.00,,2013-08-12 09:02:00,
2013-08-12 05:11:00,73.0,73.0,-100.00,SE,126,3.0,-999.0,100,0.00,,,0.00,,2013-08-12 09:11:00,
2013-08-12 05:53:00,73.0,73.0,-100.00,SE,134,2.0,-999.0,100,0.00,,,0.00,,2013-08-12 09:53:00,
2013-08-12 06:02:00,73.0,73.0,-100.00,SE,134,2.0,-999.0,100,0.00,,,0.00,,2013-08-12 10:02:00,
2013-08-12 06:12:00,73.0,73.0,-100.00,SE,134,2.0,-999.0,100,0.00,,,0.00,,2013-08-12 10:12:00,
2013-08-12 06:52:00,73.0,73.0,-100.00,SSE,149,4.0,-999.0,100,0.00,,,0.00,,2013-08-12 10:52:00,
2013-08-12 07:02:00,73.0,73.0,-100.00,SSE,149,4.0,-999.0,100,0.00,,,0.00,,2013-08-12 11:02:00,
2013-08-12 07:12:00,73.0,73.0,-100.00,SSE,149,4.0,-999.0,100,0.00,,,0.00,,2013-08-12 11:12:00,
2013-08-12 07:53:00,75.0,75.0,-100.00,SE,130,4.0,-999.0,100,0.00,,,0.00,,2013-08-12 11:53:00,
2013-08-12 08:02:00,75.0,75.0,-100.00,SE,130,4.0,-999.0,100,0.00,,,0.00,,2013-08-12 12:02:00,
2013-08-12 08:12:00,75.0,75.0,-100.00,SE,130,4.0,-999.0,100,0.00,,,0.00,,2013-08-12 12:12:00,
2013-08-12 08:52:00,76.0,76.0,-100.00,SSE,154,5.0,-999.0,100,0.00,,,0.00,,2013-08-12 12:52:00,
2013-08-12 09:02:00,76.0,76.0,-100.00,SSE,154,5.0,-999.0,100,0.00,,,0.00,,2013-08-12 13:02:00,
2013-08-12 09:12:00,76.0,76.0,-100.00,SSE,154,5.0,-999.0,100,0.00,,,0.00,,2013-08-12 13:12:00,
2013-08-12 09:53:00,76.0,74.0,-100.00,SE,142,5.0,-999.0,95,0.00,,,0.00,,2013-08-12 13:53:00,
2013-08-12 10:02:00,76.0,74.0,-100.00,SE,142,5.0,-999.0,95,0.00,,,0.00,,2013-08-12 14:02:00,
2013-08-12 10:11:00,76.0,74.0,-100.00,SE,142,5.0,-999.0,95,0.00,,,0.00,,2013-08-12 14:11:00,
2013-08-12 10:53:00,79.0,71.0,-100.00,SE,146,3.0,-999.0,77,0.00,,,0.00,,2013-08-12 14:53:00,
2013-08-12 11:02:00,79.0,71.0,-100.00,SE,146,3.0,-999.0,77,0.00,,,0.00,,2013-08-12 15:02:00,
2013-08-12 11:12:00,79.0,71.0,-100.00,SE,146,3.0,-999.0,77,0.00,,,0.00,,2013-08-12 15:12:00,
2013-08-12 11:52:00,78.0,69.0,-100.00,South,175,5.0,-999.0,73,0.00,,,0.00,,2013-08-12 15:52:00,
2013-08-12 12:02:00,78.0,69.0,-100.00,South,175,5.0,-999.0,73,0.00,,,0.00,,2013-08-12 16:02:00,
2013-08-12 12:11:00,78.0,69.0,-100.00,South,175,5.0,-999.0,73,0.00,,,0.00,,2013-08-12 16:11:00,
2013-08-12 12:53:00,79.0,66.0,-100.00,South,182,4.0,-999.0,65,0.00,,,0.00,,2013-08-12 16:53:00,
2013-08-12 13:02:00,79.0,66.0,-100.00,South,182,4.0,-999.0,65,0.00,,,0.00,,2013-08-12 17:02:00,
2013-08-12 13:11:00,79.0,66.0,-100.00,South,182,4.0,-999.0,65,0.00,,,0.00,,2013-08-12 17:11:00,
2013-08-12 13:52:00,81.0,65.0,-100.00,SSE,165,6.0,-999.0,59,0.00,,,0.00,,2013-08-12 17:52:00,
2013-08-12 14:02:00,81.0,65.0,-100.00,SSE,165,6.0,-999.0,59,0.00,,,0.00,,2013-08-12 18:02:00,
2013-08-12 14:11:00,81.0,65.0,-100.00,SSE,165,6.0,-999.0,59,0.00,,,0.00,,2013-08-12 18:11:00,
2013-08-12 15:52:00,81.0,68.0,-100.00,SSE,165,6.0,-999.0,65,0.00,,,0.00,,2013-08-12 19:52:00,
2013-08-12 16:02:00,81.0,68.0,-100.00,SSE,165,6.0,-999.0,65,0.00,,,0.00,,2013-08-12 20:02:00,
2013-08-12 16:11:00,81.0,68.0,-100.00,SSE,165,6.0,-999.0,65,0.00,,,0.00,,2013-08-12 20:11:00,
2013-08-12 16:52:00,81.0,70.0,-100.00,SSE,159,6.0,-999.0,69,0.00,,,0.00,,2013-08-12 20:52:00,
2013-08-12 17:01:00,81.0,70.0,-100.00,SSE,159,6.0,-999.0,69,0.00,,,0.00,,2013-08-12 21:01:00,
2013-08-12 17:12:00,81.0,70.0,-100.00,SSE,159,6.0,-999.0,69,0.00,,,0.00,,2013-08-12 21:12:00,
2013-08-12 17:52:00,79.0,70.0,-100.00,SSW,205,7.0,-999.0,73,0.00,,,0.00,,2013-08-12 21:52:00,
2013-08-12 18:02:00,79.0,70.0,-100.00,SSW,205,7.0,-999.0,73,0.00,,,0.00,,2013-08-12 22:02:00,
2013-08-12 18:11:00,79.0,70.0,-100.00,SSW,205,7.0,-999.0,73,0.00,,,0.00,,2013-08-12 22:11:00,
2013-08-12 18:53:00,80.0,71.0,-100.00,SSW,193,6.0,-999.0,74,0.00,,,0.00,,2013-08-12 22:53:00,
2013-08-12 19:02:00,80.0,71.0,-100.00,SSW,193,6.0,-999.0,74,0.00,,,0.00,,2013-08-12 23:02:00,
2013-08-12 19:11:00,80.0,71.0,-100.00,SSW,193,6.0,-999.0,74,0.00,,,0.00,,2013-08-12 23:11:00,
2013-08-12 19:54:00,78.0,69.0,-100.00,SSW,203,6.0,-999.0,74,0.00,,,0.00,,2013-08-12 23:54:00,
2013-08-12 20:03:00,78.0,69.0,-100.00,SSW,203,6.0,-999.0,74,0.00,,,0.00,,2013-08-13 00:03:00,
2013-08-12 20:12:00,78.0,69.0,-100.00,SSW,203,6.0,-999.0,74,0.00,,,0.00,,2013-08-13 00:12:00,
2013-08-12 20:54:00,79.0,70.0,-100.00,SSW,213,5.0,-999.0,75,0.00,,,0.00,,2013-08-13 00:54:00,
2013-08-12 21:03:00,79.0,70.0,-100.00,SSW,213,5.0,-999.0,75,0.00,,,0.00,,2013-08-13 01:03:00,
2013-08-12 21:13:00,79.0,70.0,-100.00,SSW,213,5.0,-999.0,75,0.00,,,0.00,,2013-08-13 01:13:00,
2013-08-12 21:55:00,77.0,70.0,-100.00,SW,226,2.0,-999.0,79,0.00,,,0.00,,2013-08-13 01:55:00,
2013-08-12 22:02:00,77.0,70.0,-100.00,SW,226,2.0,-999.0,79,0.00,,,0.00,,2013-08-13 02:02:00,
2013-08-12 22:11:00,77.0,70.0,-100.00,SW,226,2.0,-999.0,79,0.00,,,0.00,,2013-08-13 02:11:00,